createdAt,value
2019-03-19T00:00:06.205Z,7.31
2019-03-19T00:02:45.817Z,7.33
2019-03-19T00:05:28.304Z,7.36
2019-03-19T00:08:05.790Z,7.36
2019-03-19T00:10:47.022Z,7.36
2019-03-19T00:13:28.418Z,7.48
2019-03-19T00:16:06.463Z,7.52
2019-03-19T00:18:44.009Z,7.52
2019-03-19T00:21:22.829Z,7.52
2019-03-19T00:23:59.546Z,7.52
2019-03-19T00:26:37.179Z,7.51
2019-03-19T00:29:16.419Z,7.52
2019-03-19T00:31:56.170Z,7.55
2019-03-19T00:34:34.304Z,7.54
2019-03-19T00:37:15.583Z,7.56
2019-03-19T00:39:52.560Z,7.58
2019-03-19T00:42:34.922Z,7.53
2019-03-19T00:45:22.281Z,7.49
2019-03-19T00:48:02.474Z,7.48
2019-03-19T00:50:40.348Z,7.51
2019-03-19T00:53:21.179Z,7.56
2019-03-19T00:56:03.322Z,7.53
2019-03-19T00:58:38.427Z,7.53
2019-03-19T01:01:16.324Z,7.55
2019-03-19T01:03:54.679Z,7.54
2019-03-19T01:06:32.352Z,7.60
2019-03-19T01:09:10.475Z,7.59
2019-03-19T01:11:48.582Z,7.59
2019-03-19T01:14:25.938Z,7.56
2019-03-19T01:17:04.741Z,7.56
2019-03-19T01:19:39.785Z,7.59
2019-03-19T01:22:16.985Z,7.58
2019-03-19T01:24:53.877Z,7.54
2019-03-19T01:27:30.764Z,7.48
2019-03-19T01:30:08.545Z,7.52
2019-03-19T01:32:47.819Z,7.50
2019-03-19T01:35:24.972Z,7.48
2019-03-19T01:38:06.761Z,7.47
2019-03-19T01:40:47.223Z,7.48
2019-03-19T01:43:28.490Z,7.48
2019-03-19T01:46:21.410Z,7.45
2019-03-19T01:49:00.557Z,7.46
2019-03-19T01:51:39.037Z,7.51
2019-03-19T01:54:19.463Z,7.50
2019-03-19T01:56:55.744Z,7.45
2019-03-19T01:59:33.563Z,7.42
2019-03-19T02:02:13.801Z,7.41
2019-03-19T02:04:51.843Z,7.40
2019-03-19T02:07:25.829Z,7.37
2019-03-19T02:10:03.693Z,7.36
2019-03-19T02:12:40.543Z,7.36
2019-03-19T02:15:16.376Z,7.38
2019-03-19T02:17:52.163Z,7.41
2019-03-19T02:20:28.479Z,7.47
2019-03-19T02:23:06.747Z,7.51
2019-03-19T02:25:48.210Z,7.57
2019-03-19T02:28:30.941Z,7.47
2019-03-19T02:31:11.496Z,7.44
2019-03-19T02:33:51.341Z,7.47
2019-03-19T02:36:31.704Z,7.43
2019-03-19T02:39:11.702Z,7.42
2019-03-19T02:41:55.596Z,7.41
2019-03-19T02:44:36.515Z,7.41
2019-03-19T02:47:27.649Z,7.42
2019-03-19T02:50:10.326Z,7.41
2019-03-19T02:52:52.215Z,7.45
2019-03-19T02:55:32.349Z,7.44
2019-03-19T02:58:08.742Z,7.43
2019-03-19T03:00:50.886Z,7.42
2019-03-19T03:03:30.885Z,7.41
2019-03-19T03:06:10.444Z,7.40
2019-03-19T03:08:47.970Z,7.36
2019-03-19T03:11:24.392Z,7.35
2019-03-19T03:14:01.477Z,7.34
2019-03-19T03:16:37.780Z,7.35
2019-03-19T03:19:18.379Z,7.35
2019-03-19T03:21:55.279Z,7.34
2019-03-19T03:24:34.098Z,7.35
2019-03-19T03:27:11.632Z,7.41
2019-03-19T03:29:52.862Z,7.40
2019-03-19T03:32:32.026Z,7.33
2019-03-19T03:35:18.224Z,7.37
2019-03-19T03:38:01.240Z,7.36
2019-03-19T03:40:41.825Z,7.39
2019-03-19T03:43:25.236Z,7.41
2019-03-19T03:46:02.555Z,7.38
2019-03-19T03:48:46.959Z,7.33
2019-03-19T03:51:29.924Z,7.44
2019-03-19T03:54:11.867Z,7.37
2019-03-19T03:57:01.164Z,7.35
2019-03-19T03:59:35.182Z,7.31
2019-03-19T04:02:15.864Z,7.31
2019-03-19T04:04:54.666Z,7.29
2019-03-19T04:07:32.881Z,7.28
2019-03-19T04:10:11.137Z,7.36
2019-03-19T04:12:49.819Z,7.29
2019-03-19T04:15:26.764Z,7.33
2019-03-19T04:18:06.120Z,7.37
2019-03-19T04:20:44.119Z,7.36
2019-03-19T04:23:25.076Z,7.42
2019-03-19T04:26:12.276Z,7.41
2019-03-19T04:28:56.213Z,7.38
2019-03-19T04:31:34.212Z,7.32
2019-03-19T04:34:16.315Z,7.27
2019-03-19T04:36:58.327Z,7.23
2019-03-19T04:39:35.821Z,7.25
2019-03-19T04:42:13.942Z,7.23
2019-03-19T04:44:52.962Z,7.27
2019-03-19T04:47:36.709Z,7.33
2019-03-19T04:50:16.806Z,7.29
2019-03-19T04:52:54.276Z,7.25
2019-03-19T04:55:36.243Z,7.22
2019-03-19T04:58:16.999Z,7.18
2019-03-19T05:00:55.666Z,7.17
2019-03-19T05:03:33.424Z,7.21
2019-03-19T05:06:09.411Z,7.23
2019-03-19T05:08:46.336Z,7.18
2019-03-19T05:11:27.363Z,7.11
2019-03-19T05:14:07.396Z,7.12
2019-03-19T05:16:44.558Z,7.13
2019-03-19T05:19:25.136Z,7.11
2019-03-19T05:22:03.234Z,7.11
2019-03-19T05:24:41.078Z,7.11
2019-03-19T05:27:23.473Z,7.10
2019-03-19T05:30:02.196Z,7.09
2019-03-19T05:32:36.854Z,6.99
2019-03-19T05:35:18.343Z,6.94
2019-03-19T05:37:58.989Z,6.92
2019-03-19T05:40:50.420Z,6.91
2019-03-19T05:43:44.937Z,6.88
2019-03-19T05:46:24.121Z,6.81
2019-03-19T05:49:03.896Z,6.86
2019-03-19T05:51:39.459Z,6.87
2019-03-19T05:54:15.784Z,6.86
2019-03-19T05:56:54.097Z,6.83
2019-03-19T05:59:31.722Z,6.85
2019-03-19T06:02:09.116Z,6.84
2019-03-19T06:04:48.720Z,6.86
2019-03-19T06:07:28.097Z,6.91
2019-03-19T06:10:07.613Z,7.00
2019-03-19T06:12:46.069Z,7.01
2019-03-19T06:15:21.233Z,7.02
2019-03-19T06:17:57.712Z,7.11
2019-03-19T06:20:39.649Z,7.12
2019-03-19T06:23:19.229Z,7.24
2019-03-19T06:25:57.219Z,7.22
2019-03-19T06:28:35.862Z,7.26
2019-03-19T06:31:13.476Z,7.47
2019-03-19T06:33:53.293Z,7.58
2019-03-19T06:36:27.086Z,7.64
2019-03-19T06:39:01.112Z,7.69
2019-03-19T06:41:44.332Z,8.19
2019-03-19T06:44:18.208Z,8.17
2019-03-19T06:46:51.498Z,8.22
2019-03-19T06:49:24.314Z,8.36
2019-03-19T06:51:59.909Z,9.45
2019-03-19T06:54:35.138Z,11.14
2019-03-19T06:57:09.565Z,10.50
2019-03-19T06:59:44.068Z,9.83
2019-03-19T07:02:18.734Z,9.28
2019-03-19T07:04:53.502Z,9.04
2019-03-19T07:07:29.273Z,8.99
2019-03-19T07:10:03.882Z,9.34
2019-03-19T07:12:37.096Z,10.86
2019-03-19T07:15:16.052Z,10.79
2019-03-19T07:17:51.481Z,10.63
2019-03-19T07:20:27.988Z,10.24
2019-03-19T07:23:29.427Z,9.81
2019-03-19T07:26:06.809Z,9.51
2019-03-19T07:28:42.028Z,9.40
2019-03-19T07:31:18.297Z,9.35
2019-03-19T07:33:54.961Z,9.28
2019-03-19T07:36:32.501Z,9.23
2019-03-19T07:39:11.424Z,9.26
2019-03-19T07:41:49.301Z,9.46
2019-03-19T07:44:24.395Z,9.74
2019-03-19T07:47:01.272Z,10.10
2019-03-19T07:49:37.635Z,10.22
2019-03-19T07:52:13.575Z,10.42
2019-03-19T07:54:47.615Z,10.67
2019-03-19T07:57:22.534Z,10.92
2019-03-19T07:59:57.409Z,11.06
2019-03-19T08:02:32.743Z,11.14
2019-03-19T08:05:07.607Z,11.17
2019-03-19T08:07:50.984Z,11.13
2019-03-19T08:10:29.753Z,11.02
2019-03-19T08:13:18.645Z,11.19
2019-03-19T08:16:04.425Z,10.98
2019-03-19T08:18:46.713Z,10.75
2019-03-19T08:21:32.981Z,10.65
2019-03-19T08:24:09.140Z,10.62
2019-03-19T08:26:52.489Z,10.66
2019-03-19T08:29:35.916Z,10.48
2019-03-19T08:32:19.296Z,10.56
2019-03-19T08:35:01.872Z,10.44
2019-03-19T08:37:48.228Z,10.37
2019-03-19T08:40:31.410Z,10.31
2019-03-19T08:43:25.854Z,10.25
2019-03-19T08:46:13.669Z,10.27
2019-03-19T08:49:13.471Z,10.24
2019-03-19T08:51:56.747Z,10.34
2019-03-19T08:54:38.102Z,10.25
2019-03-19T08:57:35.978Z,10.19
2019-03-19T09:03:08.266Z,10.43
2019-03-19T09:05:45.453Z,10.57
2019-03-19T09:08:14.519Z,10.57
2019-03-19T09:10:48.010Z,10.74
2019-03-19T09:13:21.615Z,10.95
2019-03-19T09:16:12.912Z,11.01
2019-03-19T09:18:45.012Z,11.00
2019-03-19T09:21:17.139Z,10.76
2019-03-19T09:23:48.903Z,10.79
2019-03-19T09:26:20.733Z,10.84
2019-03-19T09:28:52.909Z,10.86
2019-03-19T09:31:25.193Z,10.98
2019-03-19T09:33:57.596Z,10.88
2019-03-19T09:36:29.445Z,10.96
2019-03-19T09:39:01.356Z,10.91
2019-03-19T09:41:34.488Z,10.89
2019-03-19T09:44:06.357Z,10.93
2019-03-19T09:46:38.114Z,11.29
2019-03-19T09:49:21.173Z,11.87
2019-03-19T09:51:53.317Z,12.46
2019-03-19T09:54:32.583Z,13.11
2019-03-19T09:57:04.440Z,13.33
2019-03-19T09:59:37.226Z,13.33
2019-03-19T10:02:09.543Z,13.37
2019-03-19T10:04:41.582Z,13.53
2019-03-19T10:07:13.507Z,13.88
2019-03-19T10:09:48.766Z,15.81
2019-03-19T10:12:20.984Z,15.26
2019-03-19T10:14:53.883Z,15.13
2019-03-19T10:17:25.998Z,15.88
2019-03-19T10:19:58.114Z,16.81
2019-03-19T10:22:29.922Z,16.61
2019-03-19T10:25:01.793Z,16.00
2019-03-19T10:27:33.670Z,15.42
2019-03-19T10:30:06.468Z,14.88
2019-03-19T10:32:40.159Z,14.33
2019-03-19T10:35:12.333Z,13.82
2019-03-19T10:37:44.265Z,13.79
2019-03-19T10:40:16.484Z,14.10
2019-03-19T10:42:48.219Z,14.55
2019-03-19T10:45:21.770Z,15.07
2019-03-19T10:48:02.543Z,15.00
2019-03-19T10:50:35.050Z,16.46
2019-03-19T10:53:07.030Z,16.26
2019-03-19T10:55:39.239Z,15.47
2019-03-19T10:58:14.514Z,14.81
2019-03-19T11:00:46.773Z,15.01
2019-03-19T11:03:18.605Z,15.10
2019-03-19T11:05:51.189Z,15.38
2019-03-19T11:08:22.832Z,15.22
2019-03-19T11:10:54.541Z,14.92
2019-03-19T11:13:26.238Z,15.56
2019-03-19T11:15:58.265Z,16.37
2019-03-19T11:18:30.400Z,16.92
2019-03-19T11:21:02.416Z,15.85
2019-03-19T11:23:34.165Z,15.69
2019-03-19T11:26:06.272Z,15.19
2019-03-19T11:28:41.197Z,14.88
2019-03-19T11:31:13.564Z,14.61
2019-03-19T11:33:47.625Z,14.43
2019-03-19T11:36:18.748Z,14.34
2019-03-19T11:38:50.574Z,14.47
2019-03-19T11:41:22.857Z,15.03
2019-03-19T11:43:56.064Z,15.77
2019-03-19T11:46:28.921Z,16.08
2019-03-19T11:49:01.430Z,15.97
2019-03-19T11:51:33.383Z,16.46
2019-03-19T11:54:05.431Z,16.84
2019-03-19T11:56:37.401Z,16.67
2019-03-19T11:59:09.376Z,16.61
2019-03-19T12:01:44.501Z,16.96
2019-03-19T12:04:16.641Z,16.40
2019-03-19T12:06:49.121Z,17.36
2019-03-19T12:09:21.173Z,18.96
2019-03-19T12:11:56.849Z,18.58
2019-03-19T12:14:29.530Z,18.17
2019-03-19T12:17:01.659Z,17.80
2019-03-19T12:19:35.141Z,17.02
2019-03-19T12:22:08.062Z,17.09
2019-03-19T12:24:40.039Z,17.72
2019-03-19T12:27:12.057Z,18.58
2019-03-19T12:29:44.037Z,17.75
2019-03-19T12:32:16.744Z,17.36
2019-03-19T12:34:48.599Z,17.47
2019-03-19T12:37:20.797Z,17.86
2019-03-19T12:39:53.575Z,19.10
2019-03-19T12:42:25.902Z,20.48
2019-03-19T12:44:57.659Z,20.24
2019-03-19T12:47:30.933Z,19.51
2019-03-19T12:50:03.365Z,18.41
2019-03-19T12:52:39.056Z,17.76
2019-03-19T12:55:15.279Z,17.21
2019-03-19T12:57:47.406Z,17.76
2019-03-19T13:00:32.884Z,18.22
2019-03-19T13:02:55.599Z,18.63
2019-03-19T13:05:28.468Z,18.24
2019-03-19T13:08:00.916Z,18.79
2019-03-19T13:10:33.684Z,18.82
2019-03-19T13:13:06.181Z,18.33
2019-03-19T13:15:41.862Z,19.17
2019-03-19T13:18:14.004Z,19.16
2019-03-19T13:20:53.537Z,19.32
2019-03-19T13:23:27.054Z,20.00
2019-03-19T13:26:00.901Z,19.55
2019-03-19T13:28:52.373Z,18.95
2019-03-19T13:31:24.512Z,18.65
2019-03-19T13:33:56.502Z,18.92
2019-03-19T13:36:28.597Z,18.66
2019-03-19T13:39:01.491Z,18.85
2019-03-19T13:41:36.572Z,18.48
2019-03-19T13:44:11.341Z,17.67
2019-03-19T13:46:44.186Z,17.65
2019-03-19T13:49:21.378Z,17.71
2019-03-19T13:51:54.531Z,17.06
2019-03-19T13:54:26.942Z,17.18
2019-03-19T13:56:58.974Z,17.13
2019-03-19T13:59:38.546Z,17.08
2019-03-19T14:02:10.408Z,16.81
2019-03-19T14:04:42.383Z,17.24
2019-03-19T14:07:14.433Z,17.35
2019-03-19T14:12:38.255Z,17.32
2019-03-19T14:15:12.572Z,17.23
2019-03-19T14:17:44.403Z,17.10
2019-03-19T14:20:17.750Z,16.69
2019-03-19T14:22:49.955Z,16.67
2019-03-19T14:25:23.587Z,16.69
2019-03-19T14:27:55.760Z,16.97
2019-03-19T14:30:28.033Z,16.42
2019-03-19T14:33:00.455Z,16.76
2019-03-19T14:35:37.203Z,16.96
2019-03-19T14:38:06.548Z,17.00
2019-03-19T14:40:39.962Z,17.33
2019-03-19T14:43:11.773Z,17.62
2019-03-19T14:45:44.152Z,17.19
2019-03-19T14:48:16.086Z,16.59
2019-03-19T14:50:47.887Z,16.20
2019-03-19T14:53:20.200Z,16.08
2019-03-19T14:55:54.493Z,15.55
2019-03-19T14:58:25.764Z,15.09
2019-03-19T15:00:57.676Z,15.68
2019-03-19T15:03:30.139Z,15.47
2019-03-19T15:06:04.786Z,16.02
2019-03-19T15:08:37.170Z,15.76
2019-03-19T15:11:09.961Z,15.98
2019-03-19T15:13:42.086Z,16.08
2019-03-19T15:16:14.938Z,16.23
2019-03-19T15:18:47.251Z,16.24
2019-03-19T15:21:19.051Z,16.31
2019-03-19T15:23:51.294Z,16.73
2019-03-19T15:26:23.555Z,16.72
2019-03-19T15:28:55.310Z,16.19
2019-03-19T15:31:30.008Z,15.65
2019-03-19T15:34:00.960Z,15.40
2019-03-19T15:36:34.141Z,15.58
2019-03-19T15:39:09.298Z,15.37
2019-03-19T15:41:41.403Z,15.15
2019-03-19T15:44:13.481Z,15.02
2019-03-19T15:46:46.622Z,14.96
2019-03-19T15:49:19.250Z,14.88
2019-03-19T15:51:51.168Z,14.29
2019-03-19T15:54:26.547Z,14.33
2019-03-19T15:56:59.334Z,14.15
2019-03-19T15:59:31.798Z,14.05
2019-03-19T16:02:03.984Z,13.70
2019-03-19T16:04:36.360Z,13.96
2019-03-19T16:07:08.394Z,13.61
2019-03-19T16:09:41.002Z,13.65
2019-03-19T16:12:13.087Z,13.33
2019-03-19T16:14:44.808Z,13.16
2019-03-19T16:17:16.963Z,12.83
2019-03-19T16:19:48.783Z,12.36
2019-03-19T16:22:20.915Z,12.38
2019-03-19T16:24:53.503Z,12.43
2019-03-19T16:27:31.456Z,12.07
2019-03-19T16:30:03.341Z,12.27
2019-03-19T16:32:39.110Z,12.17
2019-03-19T16:35:11.782Z,11.96
2019-03-19T16:37:46.716Z,11.81
2019-03-19T16:40:19.852Z,11.55
2019-03-19T16:43:03.748Z,11.54
2019-03-19T16:45:35.643Z,11.26
2019-03-19T16:48:13.996Z,10.87
2019-03-19T16:50:45.981Z,10.78
2019-03-19T16:53:20.605Z,10.59
2019-03-19T16:55:53.514Z,10.48
2019-03-19T16:58:31.842Z,10.44
2019-03-19T17:01:04.053Z,10.23
2019-03-19T17:03:38.997Z,10.01
2019-03-19T17:06:11.108Z,9.87
2019-03-19T17:08:53.603Z,9.74
2019-03-19T17:11:25.450Z,9.57
2019-03-19T17:14:00.405Z,9.41
2019-03-19T17:16:32.463Z,9.33
2019-03-19T17:19:08.962Z,9.20
2019-03-19T17:21:40.964Z,9.04
2019-03-19T17:24:19.035Z,8.91
2019-03-19T17:26:51.262Z,8.77
2019-03-19T17:29:33.762Z,8.73
2019-03-19T17:32:12.721Z,8.62
2019-03-19T17:34:45.455Z,8.48
2019-03-19T17:37:17.550Z,8.33
2019-03-19T17:39:52.710Z,8.25
2019-03-19T17:42:24.708Z,8.19
2019-03-19T17:45:07.181Z,8.08
2019-03-19T17:47:39.379Z,8.04
2019-03-19T17:50:17.610Z,7.98
2019-03-19T17:52:50.501Z,7.92
2019-03-19T17:55:23.005Z,7.84
2019-03-19T17:57:55.166Z,7.77
2019-03-19T18:00:45.116Z,7.68
2019-03-19T18:03:17.532Z,7.65
2019-03-19T18:05:49.328Z,7.55
2019-03-19T18:08:21.562Z,7.48
2019-03-19T18:10:54.208Z,7.45
2019-03-19T18:13:25.976Z,7.32
2019-03-19T18:16:09.024Z,7.29
2019-03-19T18:18:42.263Z,7.24
2019-03-19T18:21:20.533Z,7.17
2019-03-19T18:23:55.445Z,7.15
2019-03-19T18:26:30.891Z,7.12
2019-03-19T18:29:04.235Z,7.02
2019-03-19T18:31:40.059Z,7.01
2019-03-19T18:34:12.377Z,6.94
2019-03-19T18:36:52.085Z,6.94
2019-03-19T18:39:25.293Z,6.93
2019-03-19T18:42:00.785Z,6.88
2019-03-19T18:44:33.060Z,6.76
2019-03-19T18:47:08.069Z,6.68
2019-03-19T18:49:39.777Z,6.57
2019-03-19T18:52:17.903Z,6.51
2019-03-19T18:54:49.781Z,6.48
2019-03-19T18:57:35.578Z,6.45
2019-03-19T19:00:13.418Z,6.40
2019-03-19T19:02:50.369Z,6.42
2019-03-19T19:05:22.665Z,6.41
2019-03-19T19:08:04.016Z,6.38
2019-03-19T19:10:36.123Z,6.33
2019-03-19T19:13:09.273Z,6.26
2019-03-19T19:15:41.139Z,6.15
2019-03-19T19:18:18.454Z,6.12
2019-03-19T19:20:51.929Z,6.18
2019-03-19T19:23:24.700Z,6.26
2019-03-19T19:25:58.250Z,6.20
2019-03-19T19:28:30.285Z,6.15
2019-03-19T19:31:02.481Z,6.12
2019-03-19T19:33:39.964Z,6.03
2019-03-19T19:36:12.430Z,5.98
2019-03-19T19:38:56.465Z,5.93
2019-03-19T19:41:28.538Z,5.91
2019-03-19T19:44:03.871Z,5.91
2019-03-19T19:46:36.130Z,5.90
2019-03-19T19:49:12.825Z,5.97
2019-03-19T19:51:45.109Z,5.91
2019-03-19T19:54:23.961Z,5.89
2019-03-19T19:56:56.405Z,5.85
2019-03-19T19:59:33.895Z,5.81
2019-03-19T20:02:05.826Z,5.80
2019-03-19T20:04:41.376Z,5.87
2019-03-19T20:07:13.363Z,5.79
2019-03-19T20:09:58.842Z,5.73
2019-03-19T20:12:30.811Z,5.66
2019-03-19T20:15:06.449Z,5.55
2019-03-19T20:17:40.015Z,5.53
2019-03-19T20:20:15.092Z,5.44
2019-03-19T20:22:47.434Z,5.42
2019-03-19T20:25:24.274Z,5.37
2019-03-19T20:27:57.554Z,5.33
2019-03-19T20:30:38.677Z,5.30
2019-03-19T20:33:11.329Z,5.23
2019-03-19T20:35:50.790Z,5.11
2019-03-19T20:38:23.262Z,5.13
2019-03-19T20:40:55.987Z,5.09
2019-03-19T20:43:28.498Z,5.09
2019-03-19T20:46:10.787Z,5.05
2019-03-19T20:48:43.485Z,4.93
2019-03-19T20:51:18.796Z,4.83
2019-03-19T20:53:51.205Z,4.77
2019-03-19T20:56:27.083Z,4.72
2019-03-19T20:58:59.258Z,4.67
2019-03-19T21:01:37.486Z,4.66
2019-03-19T21:04:10.806Z,4.65
2019-03-19T21:06:46.423Z,4.67
2019-03-19T21:09:19.008Z,4.69
2019-03-19T21:11:55.379Z,4.63
2019-03-19T21:14:27.631Z,4.58
2019-03-19T21:17:07.644Z,4.53
2019-03-19T21:19:40.311Z,4.55
2019-03-19T21:22:18.936Z,4.64
2019-03-19T21:24:51.007Z,4.68
2019-03-19T21:27:29.762Z,4.67
2019-03-19T21:30:01.611Z,4.67
2019-03-19T21:32:40.447Z,4.66
2019-03-19T21:35:14.752Z,4.75
2019-03-19T21:37:52.819Z,4.76
2019-03-19T21:40:24.999Z,4.70
2019-03-19T21:43:00.244Z,4.60
2019-03-19T21:45:33.423Z,4.53
2019-03-19T21:48:15.252Z,4.43
2019-03-19T21:50:49.031Z,4.45
2019-03-19T21:53:22.130Z,4.51
2019-03-19T21:55:55.252Z,4.49
2019-03-19T21:58:32.855Z,4.49
2019-03-19T22:01:05.636Z,4.46
2019-03-19T22:03:40.962Z,4.41
2019-03-19T22:06:12.906Z,4.41
2019-03-19T22:08:51.243Z,4.40
2019-03-19T22:11:23.400Z,4.47
2019-03-19T22:14:01.893Z,4.50
2019-03-19T22:16:35.190Z,4.55
2019-03-19T22:19:10.804Z,4.79
2019-03-19T22:21:42.793Z,4.78
2019-03-19T22:24:26.813Z,4.70
2019-03-19T22:26:59.539Z,4.63
2019-03-19T22:29:38.840Z,4.60
2019-03-19T22:32:11.062Z,4.65
2019-03-19T22:34:45.935Z,4.67
2019-03-19T22:37:17.848Z,4.62
2019-03-19T22:39:55.181Z,4.76
2019-03-19T22:42:28.725Z,4.56
2019-03-19T22:45:04.742Z,4.57
2019-03-19T22:47:37.452Z,4.47
2019-03-19T22:50:14.444Z,4.38
2019-03-19T22:52:48.240Z,4.29
2019-03-19T22:55:29.499Z,4.25
2019-03-19T22:58:01.788Z,4.24
2019-03-19T23:00:43.481Z,4.21
2019-03-19T23:03:15.489Z,4.22
2019-03-19T23:05:47.797Z,4.16
2019-03-19T23:08:20.411Z,4.15
2019-03-19T23:10:52.177Z,4.10
2019-03-19T23:13:24.461Z,4.09
2019-03-19T23:15:56.401Z,4.08
2019-03-19T23:18:28.169Z,4.24
2019-03-19T23:20:59.905Z,4.29
2019-03-19T23:23:31.455Z,4.33
2019-03-19T23:26:03.550Z,4.33
2019-03-19T23:28:35.466Z,4.30
2019-03-19T23:31:07.344Z,4.17
2019-03-19T23:33:39.060Z,4.15
2019-03-19T23:36:10.735Z,4.15
2019-03-19T23:38:43.514Z,4.14
2019-03-19T23:41:15.238Z,4.17
2019-03-19T23:43:46.902Z,4.19
2019-03-19T23:46:18.446Z,4.19
2019-03-19T23:48:58.696Z,4.16
2019-03-19T23:51:30.438Z,4.12
2019-03-19T23:54:09.784Z,4.10
2019-03-19T23:56:41.491Z,4.06
2019-03-19T23:59:19.137Z,4.00
